Time;durP1;ratioP1;P1;durP2;ratioP2;P2;SDS_P1;SDS_P2;PMS_P1;PMS_P2;Temp;Humidity;BMP_temperature;BMP_pressure;BME280_temperature;BME280_humidity;BME280_pressure;Samples;Min_cycle;Max_cycle;Signal;HPM_P1;HPM_P2
2021/04/01 00:01:59;;;;;;;15.47;11.07;;;14.10;76.40;;;;;;5071520;28;20443;-75
2021/04/01 00:04:25;;;;;;;12.93;10.30;;;14.00;75.60;;;;;;5060346;28;20205;-75
2021/04/01 00:06:50;;;;;;;12.27;10.00;;;14.10;76.80;;;;;;5081534;28;20431;-75
2021/04/01 00:09:16;;;;;;;15.50;12.97;;;14.10;76.90;;;;;;5081514;28;20434;-76
2021/04/01 00:11:41;;;;;;;14.63;11.57;;;14.20;77.20;;;;;;5067174;28;20179;-76
2021/04/01 00:14:07;;;;;;;13.17;11.70;;;14.00;78.60;;;;;;5067571;28;20179;-77
2021/04/01 00:16:34;;;;;;;14.80;11.93;;;13.90;78.50;;;;;;5084638;28;20189;-76
2021/04/01 00:19:01;;;;;;;14.23;12.77;;;13.80;79.30;;;;;;5072289;28;20207;-75
2021/04/01 00:21:27;;;;;;;13.40;11.40;;;13.70;80.10;;;;;;5090894;28;20427;-76
2021/04/01 00:23:53;;;;;;;13.03;11.30;;;13.60;81.00;;;;;;5074164;28;20460;-75
2021/04/01 00:26:19;;;;;;;15.10;12.60;;;13.50;83.70;;;;;;5094604;28;20638;-78
2021/04/01 00:28:45;;;;;;;11.97;10.77;;;13.50;84.00;;;;;;5086768;28;20467;-76
2021/04/01 00:31:10;;;;;;;11.93;10.57;;;13.30;84.80;;;;;;5081289;28;20208;-76
2021/04/01 00:33:36;;;;;;;13.27;10.53;;;13.30;84.50;;;;;;5067197;28;20183;-75
2021/04/01 00:36:02;;;;;;;11.27;10.07;;;13.30;84.30;;;;;;5078863;28;20213;-76
2021/04/01 00:38:27;;;;;;;12.20;10.90;;;13.20;85.10;;;;;;5086680;28;20192;-75
2021/04/01 00:40:53;;;;;;;11.23;9.97;;;13.20;83.50;;;;;;5066135;28;20265;-77
2021/04/01 00:43:18;;;;;;;14.60;10.00;;;13.20;84.80;;;;;;5065673;28;20666;-76
2021/04/01 00:45:44;;;;;;;11.83;9.07;;;13.20;84.20;;;;;;5082972;28;20678;-77
2021/04/01 00:48:10;;;;;;;11.70;9.70;;;13.20;84.10;;;;;;5063110;28;20178;-78
2021/04/01 00:50:36;;;;;;;9.60;8.63;;;13.20;84.30;;;;;;5083590;28;20200;-77
2021/04/01 00:53:02;;;;;;;8.83;7.30;;;13.20;83.30;;;;;;5078010;28;20170;-77
2021/04/01 00:55:28;;;;;;;9.60;7.73;;;13.10;82.60;;;;;;5067604;28;20207;-77
2021/04/01 00:57:57;;;;;;;11.27;7.00;;;13.10;83.00;;;;;;5077442;28;20423;-77
2021/04/01 01:00:26;;;;;;;9.70;6.37;;;13.10;82.50;;;;;;5071579;28;20202;-78
2021/04/01 01:02:52;;;;;;;8.63;6.70;;;13.20;82.00;;;;;;5067026;28;20419;-77
2021/04/01 01:05:19;;;;;;;7.43;6.47;;;13.10;83.10;;;;;;5054467;28;20473;-77
2021/04/01 01:07:45;;;;;;;6.60;6.00;;;13.10;82.10;;;;;;5073567;28;20413;-76
2021/04/01 01:10:14;;;;;;;7.33;5.83;;;13.10;81.60;;;;;;5077210;28;20432;-75
2021/04/01 01:12:41;;;;;;;5.50;5.00;;;13.20;80.30;;;;;;5072471;28;20175;-76
2021/04/01 01:15:08;;;;;;;6.73;5.60;;;13.40;79.10;;;;;;5072964;28;20435;-78
2021/04/01 01:17:35;;;;;;;6.07;5.50;;;13.40;77.80;;;;;;5059935;28;20427;-77
2021/04/01 01:20:00;;;;;;;9.77;5.80;;;13.50;77.80;;;;;;5064232;28;20443;-77
2021/04/01 01:22:26;;;;;;;6.30;5.57;;;13.60;77.90;;;;;;5080750;28;20468;-76
2021/04/01 01:24:52;;;;;;;9.23;6.43;;;13.60;77.10;;;;;;5067407;28;20295;-77
2021/04/01 01:27:20;;;;;;;8.23;6.03;;;13.70;76.50;;;;;;5074967;28;20519;-77
2021/04/01 01:29:49;;;;;;;5.97;5.37;;;13.70;77.10;;;;;;5080508;28;20504;-75
2021/04/01 01:32:17;;;;;;;6.77;6.10;;;13.70;76.70;;;;;;5073356;28;20940;-75
2021/04/01 01:34:44;;;;;;;6.13;5.53;;;13.70;76.30;;;;;;5063791;28;20416;-75
2021/04/01 01:37:10;;;;;;;5.80;5.27;;;13.80;76.10;;;;;;5060166;28;20437;-76
2021/04/01 01:39:35;;;;;;;7.63;5.50;;;13.80;76.30;;;;;;5071676;28;20491;-75
2021/04/01 01:42:03;;;;;;;7.63;4.90;;;13.70;76.40;;;;;;5053140;28;20479;-76
2021/04/01 01:44:29;;;;;;;7.40;5.40;;;13.80;75.90;;;;;;5071880;28;20173;-76
2021/04/01 01:46:54;;;;;;;6.90;5.70;;;13.70;76.60;;;;;;5076030;28;20408;-77
2021/04/01 01:49:20;;;;;;;6.87;5.00;;;13.70;75.90;;;;;;5077726;28;20435;-76
2021/04/01 01:51:45;;;;;;;6.30;5.70;;;13.70;76.40;;;;;;5081077;28;20703;-76
2021/04/01 01:54:11;;;;;;;6.27;5.03;;;13.60;77.10;;;;;;5069392;28;20687;-78
2021/04/01 01:56:38;;;;;;;6.17;5.40;;;13.50;76.40;;;;;;5075119;28;20319;-78
2021/04/01 01:59:04;;;;;;;6.53;5.90;;;13.60;76.10;;;;;;5074155;28;20672;-76
2021/04/01 02:01:30;;;;;;;7.20;5.73;;;13.50;75.70;;;;;;5062617;28;20453;-76
2021/04/01 02:04:00;;;;;;;9.10;5.77;;;13.60;76.00;;;;;;5075021;28;20186;-77
2021/04/01 02:06:25;;;;;;;6.30;5.70;;;13.60;76.50;;;;;;5056186;28;20259;-76
2021/04/01 02:08:51;;;;;;;6.23;5.50;;;13.70;76.20;;;;;;5070498;28;20420;-76
2021/04/01 02:11:18;;;;;;;7.70;5.10;;;13.60;76.60;;;;;;5068032;28;20202;-77
2021/04/01 02:13:43;;;;;;;5.27;4.77;;;13.50;77.30;;;;;;5063031;28;20177;-76
2021/04/01 02:16:09;;;;;;;9.03;5.50;;;13.30;77.40;;;;;;5078760;28;20419;-76
2021/04/01 02:18:36;;;;;;;8.10;5.37;;;13.30;78.70;;;;;;5063542;28;20204;-74
2021/04/01 02:21:02;;;;;;;11.57;5.53;;;13.30;77.80;;;;;;5075017;28;20205;-79
2021/04/01 02:23:30;;;;;;;5.33;4.93;;;13.30;77.50;;;;;;5062843;28;20656;-76
2021/04/01 02:25:57;;;;;;;7.37;5.40;;;13.30;78.20;;;;;;5073156;28;20994;-77
2021/04/01 02:28:25;;;;;;;7.13;5.17;;;13.30;78.30;;;;;;5074509;28;20436;-76
2021/04/01 02:30:55;;;;;;;8.07;5.13;;;13.30;78.10;;;;;;5061375;28;20438;-77
2021/04/01 02:33:22;;;;;;;5.60;4.90;;;13.30;77.80;;;;;;5076994;28;20419;-76
2021/04/01 02:35:49;;;;;;;5.10;4.40;;;13.30;78.10;;;;;;5077473;28;20459;-78
2021/04/01 02:38:15;;;;;;;6.60;5.40;;;13.20;77.90;;;;;;5081073;28;20441;-77
2021/04/01 02:40:41;;;;;;;5.80;4.60;;;13.30;77.90;;;;;;5054800;28;20441;-77
2021/04/01 02:43:08;;;;;;;7.03;4.63;;;13.20;78.50;;;;;;5066831;28;20213;-78
2021/04/01 02:45:34;;;;;;;5.80;5.17;;;13.20;78.40;;;;;;5082920;28;20490;-77
2021/04/01 02:47:59;;;;;;;5.37;4.87;;;13.30;78.30;;;;;;5077602;28;20516;-76
2021/04/01 02:50:25;;;;;;;5.57;4.97;;;13.30;78.30;;;;;;5077085;28;20474;-77
2021/04/01 02:52:51;;;;;;;6.50;5.23;;;13.30;77.70;;;;;;5070758;28;21201;-74
2021/04/01 02:55:17;;;;;;;7.47;5.43;;;13.30;77.60;;;;;;5085255;28;20289;-76
2021/04/01 02:57:42;;;;;;;7.87;6.20;;;13.30;77.90;;;;;;5093423;28;20673;-77
2021/04/01 03:00:12;;;;;;;5.60;5.10;;;13.30;78.10;;;;;;5096523;28;20237;-74
2021/04/01 03:02:40;;;;;;;9.00;5.60;;;13.30;78.10;;;;;;5083319;28;20431;-77
2021/04/01 03:05:07;;;;;;;7.33;5.17;;;13.20;78.20;;;;;;5063296;28;20500;-75
2021/04/01 03:07:35;;;;;;;5.93;5.40;;;13.10;79.00;;;;;;5081094;28;20526;-76
2021/04/01 03:10:01;;;;;;;6.80;5.30;;;13.10;80.40;;;;;;5076654;28;20819;-76
2021/04/01 03:12:27;;;;;;;7.83;6.27;;;13.10;79.00;;;;;;5051458;28;20881;-77
2021/04/01 03:14:52;;;;;;;7.30;6.17;;;13.00;79.50;;;;;;5069150;28;20431;-78
2021/04/01 03:17:18;;;;;;;6.13;5.57;;;12.90;80.40;;;;;;5064210;28;20194;-77
2021/04/01 03:19:44;;;;;;;7.00;6.20;;;12.80;81.10;;;;;;5074978;28;20213;-77
2021/04/01 03:22:09;;;;;;;7.40;5.83;;;12.80;80.70;;;;;;5071035;28;20249;-78
2021/04/01 03:24:35;;;;;;;11.97;6.50;;;12.70;82.90;;;;;;5072123;28;20198;-77
2021/04/01 03:27:00;;;;;;;5.73;4.97;;;12.70;82.30;;;;;;5083502;28;20178;-76
2021/04/01 03:29:26;;;;;;;7.77;6.20;;;12.60;81.80;;;;;;5072227;28;20297;-78
2021/04/01 03:31:51;;;;;;;5.87;5.27;;;12.60;81.60;;;;;;5064910;28;20196;-77
2021/04/01 03:34:17;;;;;;;9.70;5.27;;;12.70;80.80;;;;;;5076161;28;20196;-76
2021/04/01 03:36:45;;;;;;;6.87;5.50;;;12.80;80.70;;;;;;5081808;28;20690;-78
2021/04/01 03:39:11;;;;;;;6.67;5.80;;;12.80;80.70;;;;;;5078379;28;20269;-79
2021/04/01 03:41:37;;;;;;;7.83;5.20;;;12.80;80.70;;;;;;5072373;28;20429;-77
2021/04/01 03:44:02;;;;;;;5.47;4.80;;;12.80;81.10;;;;;;5075914;28;20932;-77
2021/04/01 03:46:28;;;;;;;8.90;6.23;;;12.70;81.00;;;;;;5072126;28;20210;-76
2021/04/01 03:48:54;;;;;;;6.63;5.40;;;12.80;81.10;;;;;;5081540;28;20188;-77
2021/04/01 03:51:19;;;;;;;5.60;5.10;;;12.80;81.30;;;;;;5075052;28;20213;-76
2021/04/01 03:53:45;;;;;;;5.90;5.50;;;12.80;81.30;;;;;;5079592;28;20182;-76
2021/04/01 03:56:10;;;;;;;6.20;5.60;;;12.80;81.70;;;;;;5080286;28;20181;-76
2021/04/01 04:03:57;;;;;;;8.90;5.73;;;12.70;81.60;;;;;;5080286;28;20420;-75
2021/04/01 04:11:42;;;;;;;7.33;6.43;;;12.80;81.70;;;;;;5073984;28;20435;-76
2021/04/01 04:16:34;;;;;;;7.07;6.40;;;12.70;82.40;;;;;;5081652;28;20552;-78
2021/04/01 04:18:59;;;;;;;10.07;6.47;;;12.70;82.30;;;;;;5076235;28;20189;-77
2021/04/01 04:21:25;;;;;;;8.70;6.70;;;12.70;82.40;;;;;;5081687;28;20435;-77
2021/04/01 04:23:51;;;;;;;9.80;8.00;;;12.60;83.90;;;;;;5075795;28;20253;-77
2021/04/01 04:26:17;;;;;;;13.37;8.07;;;12.50;83.20;;;;;;5071590;28;20546;-77
2021/04/01 04:28:43;;;;;;;13.40;7.07;;;12.70;83.00;;;;;;5082159;28;20174;-77
2021/04/01 04:31:10;;;;;;;7.70;6.43;;;12.60;82.90;;;;;;5076672;28;20435;-77
2021/04/01 04:33:36;;;;;;;7.00;5.73;;;12.70;83.00;;;;;;5076686;28;20928;-77
2021/04/01 04:36:02;;;;;;;8.03;6.50;;;12.70;83.20;;;;;;5078891;28;20459;-75
2021/04/01 04:38:28;;;;;;;6.83;6.23;;;12.60;83.50;;;;;;5080980;28;20197;-77
2021/04/01 04:40:56;;;;;;;10.07;7.00;;;12.60;83.20;;;;;;5074152;28;20447;-75
2021/04/01 04:43:27;;;;;;;8.77;5.83;;;12.60;83.70;;;;;;5076863;28;20801;-77
2021/04/01 04:45:52;;;;;;;6.87;6.27;;;12.50;83.80;;;;;;5073710;28;20559;-77
2021/04/01 04:48:18;;;;;;;10.50;6.50;;;12.50;84.90;;;;;;5076724;28;20511;-76
2021/04/01 04:50:44;;;;;;;10.50;6.90;;;12.50;84.60;;;;;;5074915;28;20212;-77
2021/04/01 04:53:10;;;;;;;8.83;6.57;;;12.40;85.20;;;;;;5068881;28;20289;-75
2021/04/01 04:55:36;;;;;;;8.23;6.70;;;12.40;86.10;;;;;;5070498;28;20441;-76
2021/04/01 05:05:49;;;;;;;9.23;7.67;;;12.10;88.30;;;;;;5064770;28;20516;-76
2021/04/01 05:08:16;;;;;;;11.07;7.03;;;12.10;88.60;;;;;;5078677;28;20442;-76
2021/04/01 05:10:42;;;;;;;11.60;7.20;;;12.10;88.90;;;;;;5073860;28;20201;-77
2021/04/01 05:13:08;;;;;;;8.60;6.73;;;12.00;88.80;;;;;;5078816;28;20461;-76
2021/04/01 05:15:40;;;;;;;11.03;7.73;;;12.00;90.00;;;;;;5067816;28;20190;-76
2021/04/01 05:20:47;;;;;;;8.67;7.30;;;12.00;89.70;;;;;;5072908;28;20489;-75
2021/04/01 05:23:25;;;;;;;9.80;6.67;;;11.90;90.00;;;;;;5076259;28;20446;-77
2021/04/01 05:25:51;;;;;;;7.73;7.03;;;11.90;90.30;;;;;;5072437;28;20467;-76
2021/04/01 05:30:46;;;;;;;8.90;7.93;;;11.90;90.60;;;;;;5060363;28;20447;-77
2021/04/01 05:33:13;;;;;;;9.13;7.80;;;12.00;90.80;;;;;;5080019;28;20560;-77
2021/04/01 05:35:39;;;;;;;8.77;7.80;;;11.90;91.00;;;;;;5075161;28;20239;-77
2021/04/01 05:38:05;;;;;;;8.10;7.20;;;11.90;91.10;;;;;;5081351;28;20461;-77
2021/04/01 05:40:31;;;;;;;16.80;9.80;;;11.90;91.60;;;;;;5082715;28;20575;-76
2021/04/01 05:42:57;;;;;;;13.40;8.87;;;11.90;91.40;;;;;;5079449;28;20272;-77
2021/04/01 05:45:28;;;;;;;9.23;7.13;;;11.80;91.70;;;;;;5079395;28;20537;-77
2021/04/01 05:47:58;;;;;;;7.50;6.73;;;11.90;91.90;;;;;;5058875;28;20273;-76
2021/04/01 06:04:08;;;;;;;15.00;11.20;;;12.10;92.10;;;;;;5067048;28;20934;-77
2021/04/01 06:06:50;;;;;;;9.60;8.00;;;12.10;92.00;;;;;;5073753;28;20878;-77
2021/04/01 06:09:22;;;;;;;8.97;8.17;;;12.20;92.00;;;;;;5076091;28;20494;-77
2021/04/01 06:11:51;;;;;;;11.93;8.03;;;12.30;91.70;;;;;;5077937;28;20475;-77
2021/04/01 06:14:35;;;;;;;11.43;8.07;;;12.30;91.90;;;;;;5069295;28;20427;-77
2021/04/01 06:17:06;;;;;;;9.30;8.20;;;12.30;92.20;;;;;;5069675;28;20434;-76
2021/04/01 06:19:37;;;;;;;9.30;8.30;;;12.30;92.30;;;;;;5072192;28;21077;-77
2021/04/01 06:22:06;;;;;;;9.13;8.10;;;12.40;92.50;;;;;;5072941;28;20515;-77
2021/04/01 06:24:33;;;;;;;11.20;8.30;;;12.40;91.90;;;;;;5074401;28;20955;-78
2021/04/01 06:27:15;;;;;;;9.67;8.60;;;12.40;92.00;;;;;;5078775;28;20821;-77
2021/04/01 06:30:09;;;;;;;9.83;7.83;;;12.50;92.10;;;;;;5074837;28;20455;-77
2021/04/01 06:32:30;;;;;;;18.33;10.20;;;12.40;91.90;;;;;;5071645;28;20440;-77
2021/04/01 06:35:07;;;;;;;9.53;7.10;;;12.50;92.10;;;;;;5068256;28;20419;-76
2021/04/01 06:40:16;;;;;;;10.87;8.00;;;12.50;92.30;;;;;;5065305;28;20459;-77
2021/04/01 06:42:57;;;;;;;10.83;7.67;;;12.50;92.30;;;;;;5073989;28;20428;-76
2021/04/01 06:45:24;;;;;;;11.53;7.90;;;12.50;92.60;;;;;;5078864;28;20272;-78
2021/04/01 06:47:54;;;;;;;9.87;7.57;;;12.40;92.40;;;;;;5068880;28;20810;-76
2021/04/01 06:50:25;;;;;;;8.00;7.30;;;12.40;92.50;;;;;;5071078;28;20555;-75
2021/04/01 06:53:01;;;;;;;15.27;9.53;;;12.50;92.60;;;;;;5059650;28;20446;-76
2021/04/01 06:55:34;;;;;;;9.70;8.50;;;12.50;92.40;;;;;;5081035;28;20923;-76
2021/04/01 07:03:58;;;;;;;11.30;8.13;;;12.80;92.20;;;;;;5087537;28;20998;-76
2021/04/01 07:06:34;;;;;;;15.13;10.03;;;12.90;92.30;;;;;;5093880;28;20486;-79
2021/04/01 07:09:11;;;;;;;9.93;8.63;;;12.90;92.10;;;;;;5093881;28;20434;-78
2021/04/01 07:11:40;;;;;;;9.87;8.90;;;12.90;92.20;;;;;;5091943;28;20445;-77
2021/04/01 07:14:22;;;;;;;10.57;8.80;;;13.00;92.40;;;;;;5090229;28;20911;-77
2021/04/01 07:16:54;;;;;;;12.33;8.57;;;13.10;92.10;;;;;;5077284;28;20505;-77
2021/04/01 07:35:59;;;;;;;11.60;8.30;;;13.70;91.80;;;;;;5094284;28;20485;-76
2021/04/01 07:46:51;;;;;;;10.33;9.37;;;14.10;91.50;;;;;;5081064;28;21249;-76
2021/04/01 07:49:22;;;;;;;11.07;8.90;;;14.20;91.40;;;;;;5080135;28;20443;-79
2021/04/01 07:51:58;;;;;;;12.03;9.70;;;14.30;91.50;;;;;;5079270;28;20449;-76
2021/04/01 07:54:27;;;;;;;10.90;8.60;;;14.40;91.50;;;;;;5065687;28;20467;-78
2021/04/01 07:57:10;;;;;;;12.80;10.03;;;14.60;91.40;;;;;;5087191;28;20793;-79
2021/04/01 08:02:35;;;;;;;10.70;9.57;;;14.90;91.00;;;;;;5072174;28;20983;-75
2021/04/01 08:05:02;;;;;;;10.50;8.87;;;15.00;90.70;;;;;;5070378;28;20739;-75
2021/04/01 08:07:32;;;;;;;10.37;9.07;;;15.10;90.90;;;;;;5085408;28;20529;-78
2021/04/01 08:10:04;;;;;;;12.67;9.57;;;15.30;90.60;;;;;;5072763;28;20810;-76
2021/04/01 08:12:35;;;;;;;10.33;9.23;;;15.20;90.50;;;;;;5084644;28;20427;-76
2021/04/01 08:15:13;;;;;;;11.93;8.40;;;15.30;90.70;;;;;;5068650;28;20483;-76
2021/04/01 08:17:52;;;;;;;11.07;9.97;;;15.60;91.10;;;;;;5079421;28;20916;-77
2021/04/01 08:20:27;;;;;;;10.83;9.37;;;15.80;90.80;;;;;;5074436;28;20459;-77
2021/04/01 08:25:46;;;;;;;12.97;9.00;;;16.00;90.40;;;;;;5077728;28;20565;-75
2021/04/01 08:35:59;;;;;;;9.83;8.93;;;16.30;90.40;;;;;;5080246;28;20423;-77
2021/04/01 08:38:25;;;;;;;9.57;8.57;;;16.60;90.00;;;;;;5081022;28;20438;-77
2021/04/01 08:40:52;;;;;;;11.00;9.20;;;16.70;89.50;;;;;;5074719;28;20474;-78
2021/04/01 08:43:32;;;;;;;11.20;9.17;;;16.90;88.90;;;;;;5084091;28;20431;-77
2021/04/01 08:46:08;;;;;;;10.77;9.77;;;16.90;87.00;;;;;;5067653;28;20511;-77
2021/04/01 08:48:58;;;;;;;14.63;10.27;;;17.10;87.80;;;;;;5070393;28;20424;-76
2021/04/01 08:51:42;;;;;;;15.27;9.77;;;17.30;87.50;;;;;;5077928;28;20440;-74
2021/04/01 08:54:21;;;;;;;11.70;10.07;;;17.30;87.10;;;;;;5068801;28;20935;-75
2021/04/01 08:57:07;;;;;;;10.67;9.57;;;17.40;86.60;;;;;;5077163;28;20451;-76
2021/04/01 08:59:44;;;;;;;10.73;9.40;;;17.50;86.50;;;;;;5073840;28;20448;-78
2021/04/01 09:02:13;;;;;;;11.27;10.17;;;17.70;86.50;;;;;;5069991;28;20431;-78
2021/04/01 09:04:46;;;;;;;15.67;10.20;;;17.90;84.90;;;;;;5076912;28;20431;-77
2021/04/01 09:07:23;;;;;;;9.77;8.70;;;17.90;83.80;;;;;;5074818;28;20432;-78
2021/04/01 09:09:52;;;;;;;10.97;9.33;;;18.10;83.60;;;;;;5073907;28;20553;-77
2021/04/01 09:12:26;;;;;;;12.90;11.13;;;18.10;82.30;;;;;;5079507;28;20433;-78
2021/04/01 09:15:01;;;;;;;13.83;10.30;;;18.30;82.80;;;;;;5070689;28;20474;-76
2021/04/01 09:17:29;;;;;;;12.10;9.90;;;18.30;81.60;;;;;;5078645;28;20773;-78
2021/04/01 09:19:54;;;;;;;14.10;10.70;;;18.40;81.00;;;;;;5080061;28;20511;-79
2021/04/01 09:22:29;;;;;;;14.57;10.17;;;18.50;81.50;;;;;;5070891;28;20854;-77
2021/04/01 09:25:01;;;;;;;13.10;9.80;;;18.70;80.10;;;;;;5065316;28;20684;-76
2021/04/01 09:27:27;;;;;;;10.20;9.10;;;18.60;79.60;;;;;;5078324;28;20424;-78
2021/04/01 09:30:05;;;;;;;13.30;11.97;;;18.70;80.40;;;;;;5080537;28;20527;-76
2021/04/01 09:32:32;;;;;;;12.57;10.07;;;18.70;79.90;;;;;;5076327;28;20193;-78
2021/04/01 09:35:00;;;;;;;15.20;10.80;;;18.70;80.10;;;;;;5072800;28;20427;-77
2021/04/01 09:37:26;;;;;;;14.77;11.63;;;18.70;81.50;;;;;;5074389;28;20922;-78
2021/04/01 09:40:14;;;;;;;12.50;10.83;;;18.70;81.30;;;;;;5081759;28;20435;-78
2021/04/01 09:42:42;;;;;;;11.07;10.07;;;18.70;80.40;;;;;;5080725;28;20538;-78
2021/04/01 09:45:10;;;;;;;14.23;11.00;;;18.80;80.20;;;;;;5079745;28;20759;-78
2021/04/01 09:47:59;;;;;;;13.87;11.23;;;19.00;79.10;;;;;;5077738;28;20423;-78
2021/04/01 09:50:31;;;;;;;12.07;10.83;;;19.20;78.50;;;;;;5077469;28;20462;-77
2021/04/01 09:53:12;;;;;;;15.87;12.20;;;19.10;78.20;;;;;;5075971;28;20409;-78
2021/04/01 09:55:57;;;;;;;13.73;11.97;;;19.20;78.00;;;;;;5079584;28;20524;-77
2021/04/01 09:58:39;;;;;;;14.17;11.23;;;19.10;77.30;;;;;;5071500;28;20443;-77
2021/04/01 10:03:53;;;;;;;13.00;11.60;;;19.20;77.40;;;;;;5066094;28;20423;-77
2021/04/01 10:06:33;;;;;;;14.17;11.83;;;19.30;77.70;;;;;;5074998;28;20467;-77
2021/04/01 10:09:17;;;;;;;19.10;12.77;;;19.40;76.70;;;;;;5068950;28;20423;-77
2021/04/01 10:11:45;;;;;;;14.93;12.70;;;19.50;77.50;;;;;;5078323;28;20478;-76
2021/04/01 10:14:12;;;;;;;21.03;12.70;;;19.50;77.50;;;;;;5071516;28;20844;-77
2021/04/01 10:17:10;;;;;;;17.37;14.33;;;19.50;77.60;;;;;;5078102;28;20435;-78
2021/04/01 10:19:43;;;;;;;15.37;13.50;;;19.60;77.10;;;;;;5076886;28;20448;-78
2021/04/01 10:22:22;;;;;;;17.97;13.47;;;19.80;76.70;;;;;;5079996;28;20944;-78
2021/04/01 10:25:00;;;;;;;17.93;13.53;;;19.80;76.00;;;;;;5079717;28;20491;-78
2021/04/01 10:27:32;;;;;;;18.13;13.80;;;19.80;76.00;;;;;;5074243;28;20420;-77
2021/04/01 10:30:02;;;;;;;16.30;13.80;;;19.90;76.10;;;;;;5073506;28;20465;-78
2021/04/01 10:32:37;;;;;;;18.70;14.20;;;20.00;75.70;;;;;;5071507;28;20413;-77
2021/04/01 10:35:06;;;;;;;23.20;16.23;;;20.10;75.20;;;;;;5075955;28;20431;-78
2021/04/01 10:37:32;;;;;;;21.37;17.13;;;20.20;72.60;;;;;;5077115;28;20916;-78
2021/04/01 10:40:07;;;;;;;20.00;15.17;;;20.20;72.30;;;;;;5066470;28;20732;-77
2021/04/01 10:42:34;;;;;;;22.17;16.27;;;20.20;72.70;;;;;;5079080;28;20552;-80
2021/04/01 10:45:13;;;;;;;24.03;16.63;;;20.30;73.10;;;;;;5078304;28;20459;-79
2021/04/01 10:48:07;;;;;;;18.70;15.10;;;20.50;73.30;;;;;;5079633;28;20407;-79
2021/04/01 10:50:34;;;;;;;20.27;15.40;;;20.50;73.10;;;;;;5073202;28;20469;-78
2021/04/01 10:53:00;;;;;;;22.93;17.17;;;20.50;72.90;;;;;;5079607;28;20838;-79
2021/04/01 10:55:28;;;;;;;26.00;16.47;;;20.60;73.50;;;;;;5093267;28;20435;-78
2021/04/01 10:57:54;;;;;;;18.27;16.07;;;20.70;72.00;;;;;;5082298;28;20661;-79
2021/04/01 11:00:20;;;;;;;24.00;16.30;;;20.70;72.60;;;;;;5090716;28;20502;-79
2021/04/01 11:02:51;;;;;;;18.57;16.00;;;20.80;72.30;;;;;;5072939;28;20181;-77
2021/04/01 11:05:23;;;;;;;18.63;15.53;;;20.80;72.40;;;;;;5079041;28;20475;-78
2021/04/01 11:07:51;;;;;;;22.83;18.00;;;20.90;72.40;;;;;;5084052;28;20427;-78
2021/04/01 11:10:21;;;;;;;25.50;19.30;;;21.10;72.20;;;;;;5077638;28;20449;-77
2021/04/01 11:12:50;;;;;;;22.43;19.30;;;21.20;71.40;;;;;;5093821;28;20416;-79
2021/04/01 11:15:18;;;;;;;29.90;23.80;;;21.30;70.60;;;;;;5096273;28;20411;-79
2021/04/01 11:17:50;;;;;;;33.73;22.87;;;21.40;67.50;;;;;;5103823;28;20436;-80
2021/04/01 11:20:17;;;;;;;30.17;23.07;;;21.40;66.80;;;;;;5097781;28;20463;-78
2021/04/01 11:23:19;;;;;;;30.90;22.57;;;21.40;67.70;;;;;;5068819;28;20924;-77
2021/04/01 11:25:53;;;;;;;25.87;21.90;;;21.50;68.60;;;;;;5066785;28;20475;-78
2021/04/01 11:28:19;;;;;;;25.77;20.17;;;21.60;66.80;;;;;;5082648;28;20434;-77
2021/04/01 11:30:49;;;;;;;31.83;22.20;;;21.70;66.70;;;;;;5076647;28;20443;-78
2021/04/01 11:33:17;;;;;;;31.07;22.80;;;21.80;66.30;;;;;;5074150;28;20846;-78
2021/04/01 11:35:47;;;;;;;24.00;20.27;;;22.00;66.00;;;;;;5080625;28;20415;-78
2021/04/01 11:38:22;;;;;;;34.70;21.00;;;22.20;65.90;;;;;;5079499;28;20891;-78
2021/04/01 11:40:59;;;;;;;27.13;21.40;;;22.40;65.50;;;;;;5078219;28;20820;-78
2021/04/01 11:43:27;;;;;;;35.40;22.50;;;22.40;64.60;;;;;;5075485;28;20434;-77
2021/04/01 11:45:53;;;;;;;26.13;20.20;;;22.50;65.40;;;;;;5079407;28;20459;-79
2021/04/01 11:48:19;;;;;;;25.73;20.97;;;22.50;63.80;;;;;;5075019;28;20428;-79
2021/04/01 11:50:45;;;;;;;25.70;21.00;;;22.70;62.60;;;;;;5085512;28;20822;-78
2021/04/01 11:53:11;;;;;;;23.67;19.63;;;22.60;61.50;;;;;;5078099;28;20567;-78
2021/04/01 11:55:47;;;;;;;27.70;22.00;;;22.60;62.30;;;;;;5085047;28;20427;-77
2021/04/01 11:58:12;;;;;;;24.83;20.03;;;22.70;62.30;;;;;;5079070;28;20448;-78
2021/04/01 12:00:38;;;;;;;29.20;20.90;;;23.00;62.10;;;;;;5077660;28;20494;-79
2021/04/01 12:05:32;;;;;;;25.43;19.10;;;24.00;60.30;;;;;;5081679;28;20201;-79
2021/04/01 12:07:59;;;;;;;18.77;16.70;;;24.30;59.20;;;;;;5085784;28;20412;-81
2021/04/01 12:10:25;;;;;;;23.03;19.87;;;24.90;58.30;;;;;;5079413;28;20449;-78
2021/04/01 12:12:53;;;;;;;24.53;19.73;;;25.60;58.90;;;;;;5080226;28;20526;-78
2021/04/01 12:15:28;;;;;;;26.30;20.70;;;26.00;56.50;;;;;;5071095;28;20212;-79
2021/04/01 12:17:55;;;;;;;22.60;18.47;;;26.50;55.80;;;;;;5071763;28;20464;-79
2021/04/01 12:20:22;;;;;;;21.70;17.30;;;26.30;53.30;;;;;;5083614;28;20450;-79
2021/04/01 12:22:48;;;;;;;17.60;15.73;;;26.30;53.40;;;;;;5087592;28;20427;-80
2021/04/01 12:25:18;;;;;;;22.93;16.73;;;26.60;52.80;;;;;;5087124;28;20468;-79
2021/04/01 12:27:55;;;;;;;19.53;15.00;;;27.00;52.70;;;;;;5088898;28;20207;-78
2021/04/01 12:30:31;;;;;;;16.40;13.20;;;27.40;48.20;;;;;;5079042;28;20471;-80
2021/04/01 12:33:07;;;;;;;16.40;14.77;;;27.60;49.80;;;;;;5074818;28;20896;-79
2021/04/01 12:35:32;;;;;;;19.70;16.53;;;28.00;49.00;;;;;;5073099;28;20464;-79
2021/04/01 12:38:05;;;;;;;18.40;15.30;;;28.10;49.30;;;;;;5086438;28;20419;-79
2021/04/01 12:40:38;;;;;;;17.87;14.87;;;28.00;48.60;;;;;;5077651;28;20206;-79
2021/04/01 12:43:05;;;;;;;20.17;13.60;;;27.80;48.30;;;;;;5073834;28;20442;-79
2021/04/01 12:45:33;;;;;;;18.30;14.80;;;28.10;48.90;;;;;;5082208;28;20471;-79
2021/04/01 12:48:07;;;;;;;18.23;14.83;;;28.00;48.90;;;;;;5083304;28;20440;-79
2021/04/01 12:50:35;;;;;;;15.67;14.00;;;28.80;47.00;;;;;;5082650;28;20448;-79
2021/04/01 12:53:01;;;;;;;19.70;15.73;;;28.90;46.50;;;;;;5082543;28;20737;-79
2021/04/01 12:55:37;;;;;;;19.00;15.30;;;28.80;45.70;;;;;;5092984;28;20438;-78
2021/04/01 12:58:07;;;;;;;15.83;14.20;;;28.50;46.40;;;;;;5083910;28;20253;-79
2021/04/01 13:00:41;;;;;;;16.57;14.13;;;28.50;46.20;;;;;;5083422;28;20517;-79
2021/04/01 13:03:07;;;;;;;16.10;14.40;;;28.20;45.90;;;;;;5078819;28;20523;-80
2021/04/01 13:05:34;;;;;;;17.67;14.33;;;28.60;46.90;;;;;;5084292;28;20504;-79
2021/04/01 13:08:21;;;;;;;17.17;15.40;;;29.00;45.80;;;;;;5086050;28;20208;-79
2021/04/01 13:10:47;;;;;;;17.60;13.70;;;29.40;45.90;;;;;;5087124;28;21005;-80
2021/04/01 13:13:13;;;;;;;17.40;13.90;;;29.60;45.20;;;;;;5085218;28;20423;-80
2021/04/01 13:15:39;;;;;;;17.43;15.60;;;29.60;44.30;;;;;;5081459;28;20204;-79
2021/04/01 13:18:07;;;;;;;19.17;15.13;;;28.60;44.80;;;;;;5086075;28;20238;-78
2021/04/01 13:20:34;;;;;;;18.50;15.67;;;27.80;45.80;;;;;;5075432;28;20570;-78
2021/04/01 13:25:26;;;;;;;18.47;16.13;;;28.70;45.80;;;;;;5085507;28;20479;-79
2021/04/01 13:27:53;;;;;;;20.60;15.70;;;29.50;45.40;;;;;;5076538;28;20448;-79
2021/04/01 13:30:22;;;;;;;20.13;15.60;;;29.10;43.90;;;;;;5079260;28;20262;-79
2021/04/01 13:33:03;;;;;;;19.33;13.77;;;29.00;44.40;;;;;;5081925;28;20419;-80
2021/04/01 13:35:41;;;;;;;16.30;13.67;;;29.10;44.00;;;;;;5085340;28;20834;-79
2021/04/01 13:40:41;;;;;;;17.40;12.20;;;28.10;44.70;;;;;;5080234;28;21073;-79
2021/04/01 13:43:07;;;;;;;18.93;11.57;;;28.20;43.40;;;;;;5079629;28;20432;-78
2021/04/01 13:45:33;;;;;;;16.10;10.50;;;28.10;43.90;;;;;;5085600;28;20466;-79
2021/04/01 13:48:04;;;;;;;10.90;9.63;;;28.30;41.30;;;;;;5073156;28;20436;-80
2021/04/01 13:50:34;;;;;;;12.80;9.77;;;28.30;41.70;;;;;;5078058;28;20205;-79
2021/04/01 13:53:09;;;;;;;13.23;9.70;;;28.40;41.60;;;;;;5079708;28;20814;-78
2021/04/01 14:11:43;;;;;;;12.87;8.67;;;29.00;40.10;;;;;;5076446;28;20538;-79
2021/04/01 14:14:10;;;;;;;12.40;8.50;;;28.90;40.60;;;;;;5074359;28;20432;-78
2021/04/01 14:16:36;;;;;;;13.37;8.80;;;29.10;40.90;;;;;;5079703;28;20430;-79
2021/04/01 14:19:04;;;;;;;14.63;9.03;;;29.20;40.30;;;;;;5078356;28;20420;-78
2021/04/01 14:21:30;;;;;;;9.87;8.67;;;29.20;40.00;;;;;;5060737;28;20444;-78
2021/04/01 14:23:56;;;;;;;10.20;9.10;;;29.30;39.80;;;;;;5081943;28;20420;-79
2021/04/01 14:28:49;;;;;;;8.90;7.60;;;30.10;40.20;;;;;;5072896;28;20178;-79
2021/04/01 14:31:15;;;;;;;11.77;9.60;;;30.50;39.80;;;;;;5076233;28;20458;-79
2021/04/01 14:33:43;;;;;;;11.57;8.70;;;30.50;40.00;;;;;;5083874;28;20613;-78
2021/04/01 14:36:12;;;;;;;13.23;8.83;;;30.40;40.00;;;;;;5078286;28;20809;-79
2021/04/01 14:38:40;;;;;;;11.43;8.60;;;30.00;39.70;;;;;;5082831;28;20431;-78
2021/04/01 14:44:20;;;;;;;10.30;6.60;;;29.40;39.40;;;;;;5066886;28;20441;-78
2021/04/01 14:46:25;;;;;;;8.40;6.70;;;28.70;39.10;;;;;;5074389;28;20513;-77